createdAt,value
2022-10-09T00:04:53.566Z,6.80
2022-10-09T00:09:57.011Z,4.67
2022-10-09T00:15:02.006Z,5.13
2022-10-09T00:20:06.027Z,5.97
2022-10-09T00:25:10.045Z,8.87
2022-10-09T00:30:15.320Z,4.70
2022-10-09T00:35:18.757Z,6.80
2022-10-09T00:40:22.175Z,7.37
2022-10-09T00:45:28.082Z,5.00
2022-10-09T00:50:42.770Z,9.13
2022-10-09T00:55:46.850Z,6.90
2022-10-09T01:00:51.980Z,7.27
2022-10-09T01:06:02.687Z,6.60
2022-10-09T01:11:13.208Z,6.97
2022-10-09T01:16:25.508Z,7.63
2022-10-09T01:21:35.424Z,5.60
2022-10-09T01:27:09.973Z,5.53
2022-10-09T01:32:17.685Z,8.63
2022-10-09T01:37:23.565Z,10.33
2022-10-09T01:42:29.977Z,7.10
2022-10-09T01:47:33.378Z,8.73
2022-10-09T01:52:43.649Z,8.03
2022-10-09T01:57:54.338Z,8.97
2022-10-09T02:02:58.909Z,7.20
2022-10-09T02:08:03.198Z,10.97
2022-10-09T02:13:08.980Z,8.67
2022-10-09T02:18:16.187Z,7.43
2022-10-09T02:23:21.191Z,8.03
2022-10-09T02:28:26.139Z,7.80
2022-10-09T02:33:32.654Z,9.97
2022-10-09T02:38:36.191Z,8.20
2022-10-09T02:43:41.090Z,9.97
2022-10-09T02:48:44.862Z,9.13
2022-10-09T02:53:48.547Z,8.63
2022-10-09T02:58:53.655Z,8.07
2022-10-09T03:03:57.158Z,8.93
2022-10-09T03:09:00.576Z,7.53
2022-10-09T03:14:05.512Z,7.20
2022-10-09T03:19:09.110Z,7.23
2022-10-09T03:24:12.692Z,8.27
2022-10-09T03:29:17.564Z,7.07
2022-10-09T03:34:21.017Z,7.33
2022-10-09T03:39:24.385Z,6.60
2022-10-09T03:44:29.225Z,8.57
2022-10-09T03:49:32.736Z,8.80
2022-10-09T03:54:36.192Z,7.87
2022-10-09T03:59:40.982Z,8.03
2022-10-09T04:04:44.387Z,9.17
2022-10-09T04:09:47.891Z,8.90
2022-10-09T04:14:52.745Z,10.13
2022-10-09T04:19:56.207Z,7.07
2022-10-09T04:24:59.681Z,7.07
2022-10-09T04:30:04.917Z,8.47
2022-10-09T04:35:10.458Z,7.80
2022-10-09T04:40:13.922Z,8.80
2022-10-09T04:45:19.272Z,9.70
2022-10-09T04:50:25.174Z,8.47
2022-10-09T04:55:28.874Z,11.10
2022-10-09T05:00:33.845Z,7.23
2022-10-09T05:05:37.834Z,7.67
2022-10-09T05:10:41.341Z,6.80
2022-10-09T05:15:46.263Z,8.17
2022-10-09T05:20:49.750Z,9.33
2022-10-09T05:25:57.002Z,7.27
2022-10-09T05:31:03.592Z,9.70
2022-10-09T05:36:10.078Z,10.00
2022-10-09T05:41:15.171Z,8.07
2022-10-09T05:46:24.914Z,9.00
2022-10-09T05:51:30.044Z,9.83
2022-10-09T05:56:35.330Z,8.47
2022-10-09T06:01:41.714Z,8.80
2022-10-09T06:06:47.850Z,8.23
2022-10-09T06:11:52.422Z,9.27
2022-10-09T06:16:57.357Z,9.10
2022-10-09T06:22:02.138Z,11.53
2022-10-09T06:27:05.834Z,8.73
2022-10-09T06:32:10.995Z,10.97
2022-10-09T06:37:14.527Z,9.67
2022-10-09T06:42:19.138Z,8.97
2022-10-09T06:47:23.959Z,8.90
2022-10-09T06:52:27.537Z,10.73
2022-10-09T06:57:31.305Z,8.53
2022-10-09T07:02:41.768Z,9.37
2022-10-09T07:07:47.554Z,9.33
2022-10-09T07:12:51.281Z,8.90
2022-10-09T07:17:57.256Z,9.13
2022-10-09T07:23:00.929Z,11.23
2022-10-09T07:28:04.518Z,9.90
2022-10-09T07:33:11.191Z,9.57
2022-10-09T07:38:14.950Z,9.30
2022-10-09T07:43:18.615Z,9.60
2022-10-09T07:48:23.695Z,10.30
2022-10-09T07:53:32.605Z,10.83
2022-10-09T07:58:39.822Z,10.73
2022-10-09T08:03:44.793Z,11.67
2022-10-09T08:08:51.902Z,11.10
2022-10-09T08:13:55.914Z,11.90
2022-10-09T08:19:02.358Z,10.10
2022-10-09T08:24:06.146Z,9.47
2022-10-09T08:29:14.127Z,9.90
2022-10-09T08:34:19.729Z,9.50
2022-10-09T08:39:23.651Z,12.30
2022-10-09T08:44:29.326Z,8.00
2022-10-09T08:49:44.967Z,9.83
2022-10-09T08:54:48.498Z,9.47
2022-10-09T08:59:52.609Z,11.17
2022-10-09T09:05:20.516Z,9.67
2022-10-09T09:10:33.282Z,8.27
2022-10-09T09:15:47.750Z,11.20
2022-10-09T09:20:55.942Z,12.27
2022-10-09T09:25:59.923Z,8.30
2022-10-09T09:31:08.314Z,7.67
2022-10-09T09:36:22.214Z,7.87
2022-10-09T09:41:25.888Z,7.20
2022-10-09T09:46:32.029Z,8.87
2022-10-09T09:51:37.832Z,6.30
2022-10-09T10:02:14.890Z,7.30
2022-10-09T10:07:30.895Z,6.07
2022-10-09T10:12:34.465Z,5.47
2022-10-09T10:17:38.979Z,6.53
2022-10-09T10:22:48.084Z,6.03
2022-10-09T10:27:57.393Z,6.50
2022-10-09T10:33:05.285Z,6.07
2022-10-09T10:38:19.863Z,6.73
2022-10-09T10:43:34.713Z,5.93
2022-10-09T10:48:41.492Z,6.67
2022-10-09T10:54:01.097Z,5.33
2022-10-09T10:59:23.691Z,6.77
2022-10-09T11:04:48.159Z,8.10
2022-10-09T11:10:01.720Z,6.97
2022-10-09T11:15:17.853Z,5.57
2022-10-09T11:20:55.721Z,6.50
2022-10-09T11:26:12.341Z,4.80
2022-10-09T11:31:18.142Z,6.67
2022-10-09T11:36:26.160Z,8.17
2022-10-09T11:41:32.546Z,5.63
2022-10-09T11:46:46.276Z,7.93
2022-10-09T11:51:57.447Z,7.90
2022-10-09T11:57:06.374Z,6.90
2022-10-09T12:02:27.188Z,7.87
2022-10-09T12:07:35.073Z,9.97
2022-10-09T12:12:40.226Z,7.30
2022-10-09T12:17:50.129Z,8.03
2022-10-09T12:23:21.804Z,6.57
2022-10-09T12:28:29.520Z,7.63
2022-10-09T12:33:39.503Z,9.40
2022-10-09T12:38:43.458Z,6.30
2022-10-09T12:43:49.481Z,8.77
2022-10-09T12:48:53.048Z,6.47
2022-10-09T12:53:57.225Z,6.77
2022-10-09T12:59:04.599Z,6.10
2022-10-09T13:04:10.095Z,6.83
2022-10-09T13:09:23.277Z,5.60
2022-10-09T13:14:35.090Z,5.80
2022-10-09T13:19:38.579Z,5.30
2022-10-09T13:24:44.927Z,5.30
2022-10-09T13:29:50.163Z,4.43
2022-10-09T13:34:55.396Z,4.80
2022-10-09T13:40:00.350Z,4.47
2022-10-09T13:45:05.573Z,5.23
2022-10-09T13:50:09.672Z,5.53
2022-10-09T13:55:14.737Z,5.57
2022-10-09T14:00:19.845Z,5.27
2022-10-09T14:05:23.886Z,6.93
2022-10-09T14:10:27.358Z,5.80
2022-10-09T14:15:32.228Z,7.10
2022-10-09T14:20:36.052Z,8.10
2022-10-09T14:25:39.449Z,5.10
2022-10-09T14:30:45.441Z,6.00
2022-10-09T14:35:48.878Z,5.37
2022-10-09T14:40:52.371Z,6.30
2022-10-09T14:46:05.853Z,8.13
2022-10-09T14:51:12.426Z,5.83
2022-10-09T14:56:17.818Z,5.03
2022-10-09T15:01:23.849Z,6.07
2022-10-09T15:06:28.251Z,5.60
2022-10-09T15:11:31.740Z,5.93
2022-10-09T15:16:37.224Z,5.93
2022-10-09T15:21:40.692Z,4.67
2022-10-09T15:26:44.084Z,3.60
2022-10-09T15:31:51.187Z,4.97
2022-10-09T15:36:54.604Z,6.20
2022-10-09T15:41:58.088Z,5.67
2022-10-09T15:47:03.177Z,7.37
2022-10-09T15:52:06.646Z,3.97
2022-10-09T15:57:10.193Z,5.03
2022-10-09T16:02:15.099Z,8.57
2022-10-09T16:07:18.483Z,4.53
2022-10-09T16:12:21.902Z,5.50
2022-10-09T16:17:26.761Z,6.67
2022-10-09T16:22:30.191Z,7.07
2022-10-09T16:27:33.783Z,6.47
2022-10-09T16:32:38.733Z,6.27
2022-10-09T16:37:42.217Z,4.17
2022-10-09T16:42:45.660Z,4.07
2022-10-09T16:47:50.887Z,6.93
2022-10-09T16:52:54.604Z,5.63
2022-10-09T16:57:58.085Z,6.07
2022-10-09T17:03:03.587Z,4.80
2022-10-09T17:08:07.355Z,5.97
2022-10-09T17:13:11.091Z,4.87
2022-10-09T17:18:18.831Z,4.03
2022-10-09T17:23:22.733Z,5.50
2022-10-09T17:28:30.128Z,4.57
2022-10-09T17:33:39.441Z,4.90
2022-10-09T17:38:43.590Z,4.80
2022-10-09T17:43:48.832Z,3.87
2022-10-09T17:48:54.324Z,4.70
2022-10-09T17:54:02.757Z,6.33
2022-10-09T17:59:07.916Z,4.90
2022-10-09T18:04:16.678Z,4.80
2022-10-09T18:09:21.279Z,5.73
2022-10-09T18:14:25.866Z,6.27
2022-10-09T18:19:34.236Z,6.20
2022-10-09T18:24:38.179Z,9.13
2022-10-09T18:29:42.563Z,6.03
2022-10-09T18:34:48.453Z,6.70
2022-10-09T18:39:52.678Z,5.40
2022-10-09T18:44:57.196Z,7.90
2022-10-09T18:50:11.414Z,5.00
2022-10-09T18:55:19.710Z,5.83
2022-10-09T19:00:24.074Z,4.23
2022-10-09T19:05:29.991Z,6.43
2022-10-09T19:10:33.978Z,4.63
2022-10-09T19:15:37.545Z,4.83
2022-10-09T19:20:42.737Z,6.93
2022-10-09T19:25:50.425Z,16.80
2022-10-09T19:30:54.770Z,26.73
2022-10-09T19:35:59.986Z,11.03
2022-10-09T19:41:07.708Z,9.23
2022-10-09T19:46:14.291Z,11.70
2022-10-09T19:51:21.896Z,11.90
2022-10-09T19:56:28.662Z,7.90
2022-10-09T20:01:35.573Z,7.33
2022-10-09T20:06:42.393Z,10.03
2022-10-09T20:11:46.227Z,6.93
2022-10-09T20:16:49.759Z,6.97
2022-10-09T20:21:54.662Z,7.30
2022-10-09T20:26:58.181Z,9.07
2022-10-09T20:32:01.787Z,9.67
2022-10-09T20:37:06.949Z,7.63
2022-10-09T20:42:10.892Z,9.63
2022-10-09T20:47:14.440Z,8.27
2022-10-09T20:52:19.376Z,10.57
2022-10-09T20:57:22.890Z,9.23
2022-10-09T21:02:26.307Z,9.07
2022-10-09T21:07:32.709Z,8.77
2022-10-09T21:12:36.185Z,8.83
2022-10-09T21:17:41.203Z,8.27
2022-10-09T21:22:46.229Z,7.93
2022-10-09T21:27:49.755Z,7.93
2022-10-09T21:32:53.268Z,8.87
2022-10-09T21:37:58.299Z,9.67
2022-10-09T21:43:01.670Z,9.40
2022-10-09T21:48:05.265Z,9.27
2022-10-09T21:53:10.229Z,10.07
2022-10-09T21:58:13.673Z,9.77
2022-10-09T22:03:17.248Z,9.60
2022-10-09T22:08:22.589Z,7.60
2022-10-09T22:13:26.108Z,8.60
2022-10-09T22:18:29.539Z,7.47
2022-10-09T22:23:34.842Z,7.50
2022-10-09T22:28:38.307Z,8.73
2022-10-09T22:33:42.080Z,7.77
2022-10-09T22:38:46.937Z,9.80
2022-10-09T22:43:51.890Z,8.37
2022-10-09T22:48:55.478Z,7.50
2022-10-09T22:54:01.089Z,8.23
2022-10-09T22:59:05.611Z,9.63
2022-10-09T23:04:11.583Z,8.57
2022-10-09T23:09:16.838Z,8.00
2022-10-09T23:14:20.588Z,7.10
2022-10-09T23:19:23.982Z,7.10
2022-10-09T23:24:28.852Z,7.30
2022-10-09T23:29:32.245Z,7.27
2022-10-09T23:34:35.656Z,7.00
2022-10-09T23:39:40.498Z,6.67
2022-10-09T23:44:43.959Z,8.97
2022-10-09T23:49:47.335Z,8.40
2022-10-09T23:54:52.203Z,8.47
2022-10-09T23:59:55.645Z,6.27
